sensor_id;sensor_type;location;lat;lon;timestamp;pressure;altitude;pressure_sealevel;temperature
19666;BMP180;9980;51.020;7.772;2023-04-06T00:01:25;97732.00;;;4.80
19666;BMP180;9980;51.020;7.772;2023-04-06T00:03:52;97736.00;;;4.80
19666;BMP180;9980;51.020;7.772;2023-04-06T00:06:19;97720.00;;;4.80
19666;BMP180;9980;51.020;7.772;2023-04-06T00:08:46;97719.00;;;4.70
19666;BMP180;9980;51.020;7.772;2023-04-06T00:11:13;97720.00;;;4.70
19666;BMP180;9980;51.020;7.772;2023-04-06T00:13:40;97724.00;;;4.70
19666;BMP180;9980;51.020;7.772;2023-04-06T00:16:07;97708.00;;;4.60
19666;BMP180;9980;51.020;7.772;2023-04-06T00:18:34;97724.00;;;4.60
19666;BMP180;9980;51.020;7.772;2023-04-06T00:21:00;97712.00;;;4.60
19666;BMP180;9980;51.020;7.772;2023-04-06T00:23:27;97727.00;;;4.50
19666;BMP180;9980;51.020;7.772;2023-04-06T00:25:54;97709.00;;;4.50
19666;BMP180;9980;51.020;7.772;2023-04-06T00:28:22;97708.00;;;4.50
19666;BMP180;9980;51.020;7.772;2023-04-06T00:30:53;97707.00;;;4.40
19666;BMP180;9980;51.020;7.772;2023-04-06T00:33:22;97704.00;;;4.40
19666;BMP180;9980;51.020;7.772;2023-04-06T00:35:50;97695.00;;;4.30
19666;BMP180;9980;51.020;7.772;2023-04-06T00:38:19;97702.00;;;4.30
19666;BMP180;9980;51.020;7.772;2023-04-06T00:40:46;97711.00;;;4.30
19666;BMP180;9980;51.020;7.772;2023-04-06T00:43:13;97693.00;;;4.30
19666;BMP180;9980;51.020;7.772;2023-04-06T00:45:42;97705.00;;;4.20
19666;BMP180;9980;51.020;7.772;2023-04-06T00:48:09;97700.00;;;4.20
19666;BMP180;9980;51.020;7.772;2023-04-06T00:50:36;97674.00;;;4.20
19666;BMP180;9980;51.020;7.772;2023-04-06T00:53:03;97697.00;;;4.10
19666;BMP180;9980;51.020;7.772;2023-04-06T00:55:30;97676.00;;;4.10
19666;BMP180;9980;51.020;7.772;2023-04-06T00:57:59;97674.00;;;4.00
19666;BMP180;9980;51.020;7.772;2023-04-06T01:00:37;97682.00;;;4.00
19666;BMP180;9980;51.020;7.772;2023-04-06T01:03:04;97684.00;;;4.00
19666;BMP180;9980;51.020;7.772;2023-04-06T01:05:38;97686.00;;;4.00
19666;BMP180;9980;51.020;7.772;2023-04-06T01:08:15;97667.00;;;3.90
19666;BMP180;9980;51.020;7.772;2023-04-06T01:10:42;97681.00;;;3.90
19666;BMP180;9980;51.020;7.772;2023-04-06T01:13:19;97680.00;;;3.90
19666;BMP180;9980;51.020;7.772;2023-04-06T01:15:54;97664.00;;;3.80
19666;BMP180;9980;51.020;7.772;2023-04-06T01:18:31;97667.00;;;3.80
19666;BMP180;9980;51.020;7.772;2023-04-06T01:21:24;97662.00;;;3.80
19666;BMP180;9980;51.020;7.772;2023-04-06T01:24:10;97655.00;;;3.70
19666;BMP180;9980;51.020;7.772;2023-04-06T01:26:56;97655.00;;;3.70
19666;BMP180;9980;51.020;7.772;2023-04-06T01:29:26;97650.00;;;3.60
19666;BMP180;9980;51.020;7.772;2023-04-06T01:31:53;97658.00;;;3.60
19666;BMP180;9980;51.020;7.772;2023-04-06T01:34:21;97654.00;;;3.60
19666;BMP180;9980;51.020;7.772;2023-04-06T01:36:48;97654.00;;;3.60
19666;BMP180;9980;51.020;7.772;2023-04-06T01:39:21;97647.00;;;3.50
19666;BMP180;9980;51.020;7.772;2023-04-06T01:41:48;97629.00;;;3.50
19666;BMP180;9980;51.020;7.772;2023-04-06T01:44:18;97631.00;;;3.50
19666;BMP180;9980;51.020;7.772;2023-04-06T01:46:50;97636.00;;;3.40
19666;BMP180;9980;51.020;7.772;2023-04-06T01:49:18;97645.00;;;3.40
19666;BMP180;9980;51.020;7.772;2023-04-06T01:51:50;97644.00;;;3.40
19666;BMP180;9980;51.020;7.772;2023-04-06T01:54:17;97637.00;;;3.30
19666;BMP180;9980;51.020;7.772;2023-04-06T01:56:53;97641.00;;;3.30
19666;BMP180;9980;51.020;7.772;2023-04-06T01:59:34;97630.00;;;3.30
19666;BMP180;9980;51.020;7.772;2023-04-06T02:02:06;97639.00;;;3.20
19666;BMP180;9980;51.020;7.772;2023-04-06T02:04:35;97638.00;;;3.20
19666;BMP180;9980;51.020;7.772;2023-04-06T02:07:09;97633.00;;;3.20
19666;BMP180;9980;51.020;7.772;2023-04-06T02:09:36;97637.00;;;3.20
19666;BMP180;9980;51.020;7.772;2023-04-06T02:12:06;97630.00;;;3.10
19666;BMP180;9980;51.020;7.772;2023-04-06T02:14:33;97632.00;;;3.10
19666;BMP180;9980;51.020;7.772;2023-04-06T02:17:00;97628.00;;;3.10
19666;BMP180;9980;51.020;7.772;2023-04-06T02:19:27;97639.00;;;3.00
19666;BMP180;9980;51.020;7.772;2023-04-06T02:21:54;97633.00;;;3.00
19666;BMP180;9980;51.020;7.772;2023-04-06T02:24:22;97629.00;;;3.00
19666;BMP180;9980;51.020;7.772;2023-04-06T02:26:49;97626.00;;;2.90
19666;BMP180;9980;51.020;7.772;2023-04-06T02:29:15;97622.00;;;2.90
19666;BMP180;9980;51.020;7.772;2023-04-06T02:31:42;97616.00;;;2.90
19666;BMP180;9980;51.020;7.772;2023-04-06T02:34:09;97614.00;;;2.90
19666;BMP180;9980;51.020;7.772;2023-04-06T02:36:47;97620.00;;;2.80
19666;BMP180;9980;51.020;7.772;2023-04-06T02:39:14;97618.00;;;2.80
19666;BMP180;9980;51.020;7.772;2023-04-06T02:41:41;97613.00;;;2.80
19666;BMP180;9980;51.020;7.772;2023-04-06T02:44:08;97608.00;;;2.80
19666;BMP180;9980;51.020;7.772;2023-04-06T02:46:40;97604.00;;;2.80
19666;BMP180;9980;51.020;7.772;2023-04-06T02:49:07;97617.00;;;2.70
19666;BMP180;9980;51.020;7.772;2023-04-06T02:51:35;97614.00;;;2.70
19666;BMP180;9980;51.020;7.772;2023-04-06T02:54:14;97614.00;;;2.70
19666;BMP180;9980;51.020;7.772;2023-04-06T02:56:41;97607.00;;;2.60
19666;BMP180;9980;51.020;7.772;2023-04-06T02:59:08;97604.00;;;2.60
19666;BMP180;9980;51.020;7.772;2023-04-06T03:01:35;97606.00;;;2.60
19666;BMP180;9980;51.020;7.772;2023-04-06T03:04:04;97602.00;;;2.60
19666;BMP180;9980;51.020;7.772;2023-04-06T03:06:31;97598.00;;;2.50
19666;BMP180;9980;51.020;7.772;2023-04-06T03:09:07;97600.00;;;2.50
19666;BMP180;9980;51.020;7.772;2023-04-06T03:11:35;97603.00;;;2.50
19666;BMP180;9980;51.020;7.772;2023-04-06T03:14:02;97600.00;;;2.50
19666;BMP180;9980;51.020;7.772;2023-04-06T03:16:29;97594.00;;;2.40
19666;BMP180;9980;51.020;7.772;2023-04-06T03:18:56;97608.00;;;2.40
19666;BMP180;9980;51.020;7.772;2023-04-06T03:21:23;97597.00;;;2.40
19666;BMP180;9980;51.020;7.772;2023-04-06T03:23:51;97600.00;;;2.30
19666;BMP180;9980;51.020;7.772;2023-04-06T03:26:18;97615.00;;;2.30
19666;BMP180;9980;51.020;7.772;2023-04-06T03:28:45;97591.00;;;2.30
19666;BMP180;9980;51.020;7.772;2023-04-06T03:31:13;97613.00;;;2.30
19666;BMP180;9980;51.020;7.772;2023-04-06T03:33:54;97608.00;;;2.30
19666;BMP180;9980;51.020;7.772;2023-04-06T03:36:28;97605.00;;;2.20
19666;BMP180;9980;51.020;7.772;2023-04-06T03:38:56;97609.00;;;2.20
19666;BMP180;9980;51.020;7.772;2023-04-06T03:41:23;97600.00;;;2.20
19666;BMP180;9980;51.020;7.772;2023-04-06T03:43:57;97607.00;;;2.10
19666;BMP180;9980;51.020;7.772;2023-04-06T03:46:24;97608.00;;;2.10
19666;BMP180;9980;51.020;7.772;2023-04-06T03:48:54;97615.00;;;2.10
19666;BMP180;9980;51.020;7.772;2023-04-06T03:51:23;97601.00;;;2.10
19666;BMP180;9980;51.020;7.772;2023-04-06T03:53:50;97606.00;;;2.00
19666;BMP180;9980;51.020;7.772;2023-04-06T03:56:17;97621.00;;;2.00
19666;BMP180;9980;51.020;7.772;2023-04-06T03:58:44;97602.00;;;2.00
19666;BMP180;9980;51.020;7.772;2023-04-06T04:01:19;97599.00;;;2.00
19666;BMP180;9980;51.020;7.772;2023-04-06T04:03:46;97613.00;;;1.90
19666;BMP180;9980;51.020;7.772;2023-04-06T04:06:17;97603.00;;;1.90
19666;BMP180;9980;51.020;7.772;2023-04-06T04:08:44;97610.00;;;1.90
19666;BMP180;9980;51.020;7.772;2023-04-06T04:11:11;97585.00;;;1.90
19666;BMP180;9980;51.020;7.772;2023-04-06T04:13:38;97610.00;;;1.80
19666;BMP180;9980;51.020;7.772;2023-04-06T04:16:06;97606.00;;;1.80
19666;BMP180;9980;51.020;7.772;2023-04-06T04:18:34;97624.00;;;1.80
19666;BMP180;9980;51.020;7.772;2023-04-06T04:21:01;97610.00;;;1.70
19666;BMP180;9980;51.020;7.772;2023-04-06T04:23:28;97624.00;;;1.70
19666;BMP180;9980;51.020;7.772;2023-04-06T04:25:55;97618.00;;;1.70
19666;BMP180;9980;51.020;7.772;2023-04-06T04:28:22;97612.00;;;1.70
19666;BMP180;9980;51.020;7.772;2023-04-06T04:30:53;97629.00;;;1.70
19666;BMP180;9980;51.020;7.772;2023-04-06T04:33:21;97636.00;;;1.70
19666;BMP180;9980;51.020;7.772;2023-04-06T04:35:49;97627.00;;;1.70
19666;BMP180;9980;51.020;7.772;2023-04-06T04:38:19;97625.00;;;1.70
19666;BMP180;9980;51.020;7.772;2023-04-06T04:40:50;97622.00;;;1.70
19666;BMP180;9980;51.020;7.772;2023-04-06T04:43:17;97621.00;;;1.60
19666;BMP180;9980;51.020;7.772;2023-04-06T04:45:44;97611.00;;;1.60
19666;BMP180;9980;51.020;7.772;2023-04-06T04:48:23;97605.00;;;1.50
19666;BMP180;9980;51.020;7.772;2023-04-06T04:50:55;97615.00;;;1.50
19666;BMP180;9980;51.020;7.772;2023-04-06T04:53:26;97605.00;;;1.50
19666;BMP180;9980;51.020;7.772;2023-04-06T04:55:59;97621.00;;;1.50
19666;BMP180;9980;51.020;7.772;2023-04-06T04:58:26;97609.00;;;1.50
19666;BMP180;9980;51.020;7.772;2023-04-06T05:00:56;97607.00;;;1.50
19666;BMP180;9980;51.020;7.772;2023-04-06T05:03:26;97615.00;;;1.50
19666;BMP180;9980;51.020;7.772;2023-04-06T05:05:58;97615.00;;;1.40
19666;BMP180;9980;51.020;7.772;2023-04-06T05:08:29;97616.00;;;1.40
19666;BMP180;9980;51.020;7.772;2023-04-06T05:10:56;97619.00;;;1.40
19666;BMP180;9980;51.020;7.772;2023-04-06T05:13:23;97618.00;;;1.40
19666;BMP180;9980;51.020;7.772;2023-04-06T05:15:52;97621.00;;;1.40
19666;BMP180;9980;51.020;7.772;2023-04-06T05:18:25;97615.00;;;1.40
19666;BMP180;9980;51.020;7.772;2023-04-06T05:20:53;97615.00;;;1.40
19666;BMP180;9980;51.020;7.772;2023-04-06T05:23:27;97625.00;;;1.40
19666;BMP180;9980;51.020;7.772;2023-04-06T05:25:54;97623.00;;;1.40
19666;BMP180;9980;51.020;7.772;2023-04-06T05:28:22;97637.00;;;1.40
19666;BMP180;9980;51.020;7.772;2023-04-06T05:30:49;97603.00;;;1.40
19666;BMP180;9980;51.020;7.772;2023-04-06T05:33:16;97613.00;;;1.40
19666;BMP180;9980;51.020;7.772;2023-04-06T05:36:01;97600.00;;;1.40
19666;BMP180;9980;51.020;7.772;2023-04-06T05:38:28;97632.00;;;1.40
19666;BMP180;9980;51.020;7.772;2023-04-06T05:41:00;97629.00;;;1.50
19666;BMP180;9980;51.020;7.772;2023-04-06T05:43:31;97617.00;;;1.50
19666;BMP180;9980;51.020;7.772;2023-04-06T05:45:59;97608.00;;;1.50
19666;BMP180;9980;51.020;7.772;2023-04-06T05:48:26;97614.00;;;1.50
19666;BMP180;9980;51.020;7.772;2023-04-06T05:50:52;97609.00;;;1.50
19666;BMP180;9980;51.020;7.772;2023-04-06T05:53:26;97617.00;;;1.60
19666;BMP180;9980;51.020;7.772;2023-04-06T05:55:56;97623.00;;;1.60
19666;BMP180;9980;51.020;7.772;2023-04-06T05:58:23;97619.00;;;1.70
19666;BMP180;9980;51.020;7.772;2023-04-06T06:01:02;97621.00;;;1.80
19666;BMP180;9980;51.020;7.772;2023-04-06T06:03:37;97633.00;;;1.80
19666;BMP180;9980;51.020;7.772;2023-04-06T06:06:05;97612.00;;;1.90
19666;BMP180;9980;51.020;7.772;2023-04-06T06:08:42;97622.00;;;1.90
19666;BMP180;9980;51.020;7.772;2023-04-06T06:11:13;97607.00;;;2.00
19666;BMP180;9980;51.020;7.772;2023-04-06T06:13:41;97577.00;;;2.10
19666;BMP180;9980;51.020;7.772;2023-04-06T06:16:08;97610.00;;;2.20
19666;BMP180;9980;51.020;7.772;2023-04-06T06:18:41;97609.00;;;2.30
19666;BMP180;9980;51.020;7.772;2023-04-06T06:21:08;97604.00;;;2.40
19666;BMP180;9980;51.020;7.772;2023-04-06T06:23:35;97594.00;;;2.50
19666;BMP180;9980;51.020;7.772;2023-04-06T06:26:02;97599.00;;;2.60
19666;BMP180;9980;51.020;7.772;2023-04-06T06:28:29;97611.00;;;2.70
19666;BMP180;9980;51.020;7.772;2023-04-06T06:30:56;97596.00;;;2.80
19666;BMP180;9980;51.020;7.772;2023-04-06T06:33:24;97606.00;;;2.90
19666;BMP180;9980;51.020;7.772;2023-04-06T06:35:53;97595.00;;;3.00
19666;BMP180;9980;51.020;7.772;2023-04-06T06:38:20;97619.00;;;3.10
19666;BMP180;9980;51.020;7.772;2023-04-06T06:40:49;97620.00;;;3.20
19666;BMP180;9980;51.020;7.772;2023-04-06T06:43:16;97612.00;;;3.30
19666;BMP180;9980;51.020;7.772;2023-04-06T06:45:55;97605.00;;;3.50
19666;BMP180;9980;51.020;7.772;2023-04-06T06:48:22;97603.00;;;3.60
19666;BMP180;9980;51.020;7.772;2023-04-06T06:50:49;97607.00;;;3.70
19666;BMP180;9980;51.020;7.772;2023-04-06T06:53:16;97609.00;;;3.80
19666;BMP180;9980;51.020;7.772;2023-04-06T06:55:43;97605.00;;;4.00
19666;BMP180;9980;51.020;7.772;2023-04-06T06:58:11;97602.00;;;4.10
19666;BMP180;9980;51.020;7.772;2023-04-06T07:00:38;97615.00;;;4.30
19666;BMP180;9980;51.020;7.772;2023-04-06T07:03:06;97615.00;;;4.40
19666;BMP180;9980;51.020;7.772;2023-04-06T07:05:33;97589.00;;;4.50
19666;BMP180;9980;51.020;7.772;2023-04-06T07:08:00;97612.00;;;4.70
19666;BMP180;9980;51.020;7.772;2023-04-06T07:10:27;97589.00;;;4.80
19666;BMP180;9980;51.020;7.772;2023-04-06T07:12:54;97597.00;;;4.90
19666;BMP180;9980;51.020;7.772;2023-04-06T07:15:22;97607.00;;;5.10
19666;BMP180;9980;51.020;7.772;2023-04-06T07:17:50;97585.00;;;5.30
19666;BMP180;9980;51.020;7.772;2023-04-06T07:20:18;97589.00;;;5.40
19666;BMP180;9980;51.020;7.772;2023-04-06T07:22:46;97573.00;;;5.50
19666;BMP180;9980;51.020;7.772;2023-04-06T07:25:13;97571.00;;;5.70
19666;BMP180;9980;51.020;7.772;2023-04-06T07:27:40;97591.00;;;5.80
19666;BMP180;9980;51.020;7.772;2023-04-06T07:30:08;97583.00;;;6.00
19666;BMP180;9980;51.020;7.772;2023-04-06T07:32:35;97579.00;;;6.20
19666;BMP180;9980;51.020;7.772;2023-04-06T07:35:03;97586.00;;;6.40
19666;BMP180;9980;51.020;7.772;2023-04-06T07:37:30;97573.00;;;6.50
19666;BMP180;9980;51.020;7.772;2023-04-06T07:39:57;97583.00;;;6.70
19666;BMP180;9980;51.020;7.772;2023-04-06T07:42:24;97554.00;;;6.90
19666;BMP180;9980;51.020;7.772;2023-04-06T07:44:51;97576.00;;;7.10
19666;BMP180;9980;51.020;7.772;2023-04-06T07:47:18;97572.00;;;7.20
19666;BMP180;9980;51.020;7.772;2023-04-06T07:49:45;97562.00;;;7.40
19666;BMP180;9980;51.020;7.772;2023-04-06T07:52:12;97551.00;;;7.60
19666;BMP180;9980;51.020;7.772;2023-04-06T07:54:41;97547.00;;;7.80
19666;BMP180;9980;51.020;7.772;2023-04-06T07:57:08;97571.00;;;8.00
19666;BMP180;9980;51.020;7.772;2023-04-06T07:59:35;97558.00;;;8.10
19666;BMP180;9980;51.020;7.772;2023-04-06T08:02:02;97556.00;;;8.30
19666;BMP180;9980;51.020;7.772;2023-04-06T08:04:29;97562.00;;;8.40
19666;BMP180;9980;51.020;7.772;2023-04-06T08:06:56;97569.00;;;8.60
19666;BMP180;9980;51.020;7.772;2023-04-06T08:09:23;97554.00;;;8.80
19666;BMP180;9980;51.020;7.772;2023-04-06T08:11:49;97557.00;;;8.90
19666;BMP180;9980;51.020;7.772;2023-04-06T08:14:16;97551.00;;;9.10
19666;BMP180;9980;51.020;7.772;2023-04-06T08:16:43;97558.00;;;9.30
19666;BMP180;9980;51.020;7.772;2023-04-06T08:19:10;97554.00;;;9.40
19666;BMP180;9980;51.020;7.772;2023-04-06T08:21:38;97557.00;;;9.60
19666;BMP180;9980;51.020;7.772;2023-04-06T08:24:06;97549.00;;;9.80
19666;BMP180;9980;51.020;7.772;2023-04-06T08:26:34;97550.00;;;9.90
19666;BMP180;9980;51.020;7.772;2023-04-06T08:29:01;97561.00;;;10.10
19666;BMP180;9980;51.020;7.772;2023-04-06T08:31:28;97551.00;;;10.20
19666;BMP180;9980;51.020;7.772;2023-04-06T08:33:55;97551.00;;;10.40
19666;BMP180;9980;51.020;7.772;2023-04-06T08:36:22;97554.00;;;10.60
19666;BMP180;9980;51.020;7.772;2023-04-06T08:38:50;97547.00;;;10.70
19666;BMP180;9980;51.020;7.772;2023-04-06T08:41:17;97546.00;;;10.90
19666;BMP180;9980;51.020;7.772;2023-04-06T08:43:56;97547.00;;;11.00
19666;BMP180;9980;51.020;7.772;2023-04-06T08:46:24;97553.00;;;11.20
19666;BMP180;9980;51.020;7.772;2023-04-06T08:48:59;97547.00;;;11.30
19666;BMP180;9980;51.020;7.772;2023-04-06T08:51:28;97543.00;;;11.40
19666;BMP180;9980;51.020;7.772;2023-04-06T08:53:58;97541.00;;;11.60
19666;BMP180;9980;51.020;7.772;2023-04-06T08:56:27;97540.00;;;11.70
19666;BMP180;9980;51.020;7.772;2023-04-06T08:58:55;97533.00;;;11.90
19666;BMP180;9980;51.020;7.772;2023-04-06T09:01:27;97536.00;;;12.00
19666;BMP180;9980;51.020;7.772;2023-04-06T09:03:59;97535.00;;;12.10
19666;BMP180;9980;51.020;7.772;2023-04-06T09:06:27;97539.00;;;12.30
19666;BMP180;9980;51.020;7.772;2023-04-06T09:08:54;97538.00;;;12.40
19666;BMP180;9980;51.020;7.772;2023-04-06T09:11:22;97542.00;;;12.60
19666;BMP180;9980;51.020;7.772;2023-04-06T09:13:55;97541.00;;;12.70
19666;BMP180;9980;51.020;7.772;2023-04-06T09:16:23;97562.00;;;12.80
19666;BMP180;9980;51.020;7.772;2023-04-06T09:18:50;97539.00;;;13.00
19666;BMP180;9980;51.020;7.772;2023-04-06T09:21:18;97541.00;;;13.10
19666;BMP180;9980;51.020;7.772;2023-04-06T09:24:01;97545.00;;;13.20
19666;BMP180;9980;51.020;7.772;2023-04-06T09:26:29;97536.00;;;13.40
19666;BMP180;9980;51.020;7.772;2023-04-06T09:28:58;97537.00;;;13.50
19666;BMP180;9980;51.020;7.772;2023-04-06T09:31:29;97551.00;;;13.60
19666;BMP180;9980;51.020;7.772;2023-04-06T09:33:57;97536.00;;;13.70
19666;BMP180;9980;51.020;7.772;2023-04-06T09:36:36;97530.00;;;13.80
19666;BMP180;9980;51.020;7.772;2023-04-06T09:39:08;97533.00;;;13.90
19666;BMP180;9980;51.020;7.772;2023-04-06T09:41:36;97535.00;;;14.10
19666;BMP180;9980;51.020;7.772;2023-04-06T09:44:08;97530.00;;;14.20
19666;BMP180;9980;51.020;7.772;2023-04-06T09:46:46;97529.00;;;14.30
19666;BMP180;9980;51.020;7.772;2023-04-06T09:49:33;97528.00;;;14.40
19666;BMP180;9980;51.020;7.772;2023-04-06T09:52:03;97525.00;;;14.50
19666;BMP180;9980;51.020;7.772;2023-04-06T09:54:31;97522.00;;;14.60
19666;BMP180;9980;51.020;7.772;2023-04-06T09:57:09;97529.00;;;14.70
19666;BMP180;9980;51.020;7.772;2023-04-06T10:02:58;97535.00;;;14.90
19666;BMP180;9980;51.020;7.772;2023-04-06T10:08:16;97526.00;;;15.00
19666;BMP180;9980;51.020;7.772;2023-04-06T10:10:43;97530.00;;;15.10
19666;BMP180;9980;51.020;7.772;2023-04-06T10:13:11;97538.00;;;15.20
19666;BMP180;9980;51.020;7.772;2023-04-06T10:15:39;97526.00;;;15.30
19666;BMP180;9980;51.020;7.772;2023-04-06T10:18:08;97519.00;;;15.50
19666;BMP180;9980;51.020;7.772;2023-04-06T10:20:57;97531.00;;;15.50
19666;BMP180;9980;51.020;7.772;2023-04-06T10:23:38;97524.00;;;15.60
19666;BMP180;9980;51.020;7.772;2023-04-06T10:26:17;97527.00;;;15.70
19666;BMP180;9980;51.020;7.772;2023-04-06T10:28:47;97524.00;;;15.70
19666;BMP180;9980;51.020;7.772;2023-04-06T10:31:14;97521.00;;;15.80
19666;BMP180;9980;51.020;7.772;2023-04-06T10:33:42;97524.00;;;15.90
19666;BMP180;9980;51.020;7.772;2023-04-06T10:36:28;97527.00;;;15.90
19666;BMP180;9980;51.020;7.772;2023-04-06T10:38:59;97527.00;;;16.00
19666;BMP180;9980;51.020;7.772;2023-04-06T10:41:40;97528.00;;;16.00
19666;BMP180;9980;51.020;7.772;2023-04-06T10:44:07;97510.00;;;16.10
19666;BMP180;9980;51.020;7.772;2023-04-06T10:46:34;97526.00;;;16.20
19666;BMP180;9980;51.020;7.772;2023-04-06T10:49:20;97531.00;;;16.20
19666;BMP180;9980;51.020;7.772;2023-04-06T10:51:55;97519.00;;;16.30
19666;BMP180;9980;51.020;7.772;2023-04-06T10:54:26;97515.00;;;16.30
19666;BMP180;9980;51.020;7.772;2023-04-06T10:56:53;97521.00;;;16.40
19666;BMP180;9980;51.020;7.772;2023-04-06T10:59:21;97519.00;;;16.40
19666;BMP180;9980;51.020;7.772;2023-04-06T11:01:49;97523.00;;;16.50
19666;BMP180;9980;51.020;7.772;2023-04-06T11:04:17;97513.00;;;16.50
19666;BMP180;9980;51.020;7.772;2023-04-06T11:06:50;97513.00;;;16.60
19666;BMP180;9980;51.020;7.772;2023-04-06T11:09:28;97537.00;;;16.60
19666;BMP180;9980;51.020;7.772;2023-04-06T11:11:55;97520.00;;;16.70
19666;BMP180;9980;51.020;7.772;2023-04-06T11:14:23;97512.00;;;16.80
19666;BMP180;9980;51.020;7.772;2023-04-06T11:16:50;97519.00;;;16.80
19666;BMP180;9980;51.020;7.772;2023-04-06T11:19:18;97517.00;;;16.90
19666;BMP180;9980;51.020;7.772;2023-04-06T11:21:47;97513.00;;;16.90
19666;BMP180;9980;51.020;7.772;2023-04-06T11:24:24;97519.00;;;17.00
19666;BMP180;9980;51.020;7.772;2023-04-06T11:26:58;97512.00;;;17.00
19666;BMP180;9980;51.020;7.772;2023-04-06T11:29:30;97512.00;;;17.00
19666;BMP180;9980;51.020;7.772;2023-04-06T11:32:06;97510.00;;;17.10
19666;BMP180;9980;51.020;7.772;2023-04-06T11:34:36;97511.00;;;17.10
19666;BMP180;9980;51.020;7.772;2023-04-06T11:37:10;97503.00;;;17.20
19666;BMP180;9980;51.020;7.772;2023-04-06T11:39:43;97499.00;;;17.20
19666;BMP180;9980;51.020;7.772;2023-04-06T11:42:10;97505.00;;;17.30
19666;BMP180;9980;51.020;7.772;2023-04-06T11:44:40;97494.00;;;17.30
19666;BMP180;9980;51.020;7.772;2023-04-06T11:47:09;97497.00;;;17.30
19666;BMP180;9980;51.020;7.772;2023-04-06T11:49:39;97486.00;;;17.40
19666;BMP180;9980;51.020;7.772;2023-04-06T11:52:22;97492.00;;;17.40
19666;BMP180;9980;51.020;7.772;2023-04-06T11:54:54;97497.00;;;17.50
19666;BMP180;9980;51.020;7.772;2023-04-06T11:57:23;97488.00;;;17.60
19666;BMP180;9980;51.020;7.772;2023-04-06T11:59:55;97479.00;;;17.70
19666;BMP180;9980;51.020;7.772;2023-04-06T12:02:22;97495.00;;;17.70
19666;BMP180;9980;51.020;7.772;2023-04-06T12:04:49;97480.00;;;17.80
19666;BMP180;9980;51.020;7.772;2023-04-06T12:07:16;97482.00;;;17.80
19666;BMP180;9980;51.020;7.772;2023-04-06T12:09:43;97495.00;;;17.90
19666;BMP180;9980;51.020;7.772;2023-04-06T12:12:10;97494.00;;;17.90
19666;BMP180;9980;51.020;7.772;2023-04-06T12:14:37;97486.00;;;18.00
19666;BMP180;9980;51.020;7.772;2023-04-06T12:17:03;97472.00;;;18.00
19666;BMP180;9980;51.020;7.772;2023-04-06T12:19:30;97487.00;;;18.00
19666;BMP180;9980;51.020;7.772;2023-04-06T12:21:58;97483.00;;;18.10
19666;BMP180;9980;51.020;7.772;2023-04-06T12:24:25;97475.00;;;18.10
19666;BMP180;9980;51.020;7.772;2023-04-06T12:26:53;97479.00;;;18.20
19666;BMP180;9980;51.020;7.772;2023-04-06T12:29:34;97470.00;;;18.20
19666;BMP180;9980;51.020;7.772;2023-04-06T12:32:01;97464.00;;;18.20
19666;BMP180;9980;51.020;7.772;2023-04-06T12:34:28;97471.00;;;18.20
19666;BMP180;9980;51.020;7.772;2023-04-06T12:36:55;97472.00;;;18.20
19666;BMP180;9980;51.020;7.772;2023-04-06T12:39:23;97470.00;;;18.20
19666;BMP180;9980;51.020;7.772;2023-04-06T12:41:50;97482.00;;;18.20
19666;BMP180;9980;51.020;7.772;2023-04-06T12:44:17;97469.00;;;18.20
19666;BMP180;9980;51.020;7.772;2023-04-06T12:46:44;97465.00;;;18.10
19666;BMP180;9980;51.020;7.772;2023-04-06T12:49:12;97461.00;;;18.10
19666;BMP180;9980;51.020;7.772;2023-04-06T12:51:39;97463.00;;;18.10
19666;BMP180;9980;51.020;7.772;2023-04-06T12:54:06;97477.00;;;18.00
19666;BMP180;9980;51.020;7.772;2023-04-06T12:56:33;97457.00;;;18.00
19666;BMP180;9980;51.020;7.772;2023-04-06T12:59:00;97463.00;;;18.00
19666;BMP180;9980;51.020;7.772;2023-04-06T13:01:27;97451.00;;;18.00
19666;BMP180;9980;51.020;7.772;2023-04-06T13:03:56;97458.00;;;18.00
19666;BMP180;9980;51.020;7.772;2023-04-06T13:06:24;97460.00;;;18.00
19666;BMP180;9980;51.020;7.772;2023-04-06T13:08:54;97455.00;;;18.00
19666;BMP180;9980;51.020;7.772;2023-04-06T13:11:22;97449.00;;;18.00
19666;BMP180;9980;51.020;7.772;2023-04-06T13:13:53;97458.00;;;18.10
19666;BMP180;9980;51.020;7.772;2023-04-06T13:16:20;97452.00;;;18.10
19666;BMP180;9980;51.020;7.772;2023-04-06T13:18:47;97454.00;;;18.10
19666;BMP180;9980;51.020;7.772;2023-04-06T13:21:15;97464.00;;;18.10
19666;BMP180;9980;51.020;7.772;2023-04-06T13:23:43;97463.00;;;18.10
19666;BMP180;9980;51.020;7.772;2023-04-06T13:26:10;97448.00;;;18.00
19666;BMP180;9980;51.020;7.772;2023-04-06T13:28:39;97459.00;;;18.00
19666;BMP180;9980;51.020;7.772;2023-04-06T13:31:07;97450.00;;;18.00
19666;BMP180;9980;51.020;7.772;2023-04-06T13:33:35;97445.00;;;18.00
19666;BMP180;9980;51.020;7.772;2023-04-06T13:36:03;97457.00;;;17.90
19666;BMP180;9980;51.020;7.772;2023-04-06T13:38:30;97451.00;;;17.90
19666;BMP180;9980;51.020;7.772;2023-04-06T13:40:57;97461.00;;;17.90
19666;BMP180;9980;51.020;7.772;2023-04-06T13:43:25;97451.00;;;17.80
19666;BMP180;9980;51.020;7.772;2023-04-06T13:45:54;97440.00;;;17.70
19666;BMP180;9980;51.020;7.772;2023-04-06T13:48:22;97457.00;;;17.70
19666;BMP180;9980;51.020;7.772;2023-04-06T13:50:49;97434.00;;;17.60
19666;BMP180;9980;51.020;7.772;2023-04-06T13:53:17;97451.00;;;17.60
19666;BMP180;9980;51.020;7.772;2023-04-06T13:55:52;97444.00;;;17.50
19666;BMP180;9980;51.020;7.772;2023-04-06T13:58:19;97435.00;;;17.50
19666;BMP180;9980;51.020;7.772;2023-04-06T14:00:46;97434.00;;;17.50
19666;BMP180;9980;51.020;7.772;2023-04-06T14:03:13;97433.00;;;17.50
19666;BMP180;9980;51.020;7.772;2023-04-06T14:05:40;97445.00;;;17.50
19666;BMP180;9980;51.020;7.772;2023-04-06T14:08:07;97446.00;;;17.50
19666;BMP180;9980;51.020;7.772;2023-04-06T14:10:41;97445.00;;;17.40
19666;BMP180;9980;51.020;7.772;2023-04-06T14:13:09;97443.00;;;17.40
19666;BMP180;9980;51.020;7.772;2023-04-06T14:15:36;97435.00;;;17.40
19666;BMP180;9980;51.020;7.772;2023-04-06T14:18:04;97437.00;;;17.30
19666;BMP180;9980;51.020;7.772;2023-04-06T14:20:32;97437.00;;;17.30
19666;BMP180;9980;51.020;7.772;2023-04-06T14:23:01;97446.00;;;17.30
19666;BMP180;9980;51.020;7.772;2023-04-06T14:25:28;97463.00;;;17.30
19666;BMP180;9980;51.020;7.772;2023-04-06T14:27:58;97451.00;;;17.20
19666;BMP180;9980;51.020;7.772;2023-04-06T14:30:25;97453.00;;;17.20
19666;BMP180;9980;51.020;7.772;2023-04-06T14:32:52;97446.00;;;17.20
19666;BMP180;9980;51.020;7.772;2023-04-06T14:35:19;97451.00;;;17.20
19666;BMP180;9980;51.020;7.772;2023-04-06T14:37:46;97454.00;;;17.10
19666;BMP180;9980;51.020;7.772;2023-04-06T14:40:13;97466.00;;;17.10
19666;BMP180;9980;51.020;7.772;2023-04-06T14:42:40;97452.00;;;17.10
19666;BMP180;9980;51.020;7.772;2023-04-06T14:45:08;97445.00;;;17.00
19666;BMP180;9980;51.020;7.772;2023-04-06T14:47:34;97445.00;;;17.00